Greenwald, MN (56335)

3:17 PM CDT on August 24, 2016 (GMT -0500)
Sauk Centre | | Change Station

Elev 1240 ft 45.71 °N, 94.93 °W | Updated 4 minutes ago

Clear
Clear
72 °F
Feels Like 72 °F
N
16
Wind Variable Wind from West
Gusts 23 mph

Today
High -- | Low -- °F
--% Chance of Precip.
Yesterday
High -- | Low -- °F
Precip. -- in
Pressure 29.97 in
Visibility 10.0 miles
Clouds Clear
Dew Point 55 °F
Humidity 55%
Rainfall 0.00 in
Snow Depth Not available.
6:31 AM 8:10 PM
Waning Gibbous, 54% visible
METAR KD39 242013Z AUTO 27014G20KT 10SM CLR 22/13 A2997 RMK AO2 T02220129
Pressure 29.97 in
Visibility 10.0 miles
Clouds Clear
Dew Point 55 °F
Humidity 55%
Rainfall 0.00 in
Snow Depth Not available.
6:31 AM 8:10 PM
Waning Gibbous, 54% visible
METAR KD39 242013Z AUTO 27014G20KT 10SM CLR 22/13 A2997 RMK AO2 T02220129

10-Day Weather Forecast

Almanac

Astronomy

Aug. 24, 2016 Rise Set
Actual Time
Civil Twilight
Nautical Twilight
Astronomical Twilight
Moon
Length of Visible Light
Length of Day
Tomorrow will be .
, % of the Moon is Illuminated

Today's Extremes

State Highs State Lows

Community

WunderPhotos

Upload Photos

1,934,699 photos uploaded!

WunderBlog® & News

Nearby

Air Quality

  Air Quality AQ Index Pollutant
Not available.

Snow Depth

Station Depth Elevation

Earthquake Activity

City Distance Mag. Time & Date
Minimum magnitude displayed is 2.5.

Coastal Water Temperatures

Place Temperature

Stations

Nearby Weather Stations

Station Location Temp. Windchill Dew Point Humidity Wind Precip. Elev Updated Type
                   

Watches & Warnings

There are currently no watches in effect.